createdAt,value
2023-02-11T00:00:08.477Z,20.48
2023-02-11T00:03:12.621Z,20.35
2023-02-11T00:06:15.389Z,20.32
2023-02-11T00:09:18.165Z,20.32
2023-02-11T00:12:21.161Z,20.34
2023-02-11T00:15:24.023Z,20.34
2023-02-11T00:18:28.893Z,20.37
2023-02-11T00:21:31.644Z,20.35
2023-02-11T00:24:34.431Z,20.37
2023-02-11T00:27:38.079Z,20.35
2023-02-11T00:30:41.093Z,20.29
2023-02-11T00:33:45.739Z,20.35
2023-02-11T00:36:49.463Z,20.35
2023-02-11T00:39:52.289Z,20.38
2023-02-11T00:42:55.051Z,20.35
2023-02-11T00:45:58.804Z,20.37
2023-02-11T00:49:02.908Z,20.40
2023-02-11T00:52:05.799Z,20.35
2023-02-11T00:55:08.965Z,20.38
2023-02-11T00:58:12.785Z,20.41
2023-02-11T01:01:15.937Z,20.37
2023-02-11T01:04:20.132Z,20.36
2023-02-11T01:07:23.263Z,20.36
2023-02-11T01:10:26.404Z,20.39
2023-02-11T01:13:29.650Z,20.36
2023-02-11T01:16:32.435Z,20.37
2023-02-11T01:19:37.541Z,20.34
2023-02-11T01:22:40.390Z,20.40
2023-02-11T01:25:43.144Z,20.41
2023-02-11T01:28:45.956Z,20.37
2023-02-11T01:31:49.073Z,20.42
2023-02-11T01:34:53.238Z,20.37
2023-02-11T01:37:55.931Z,20.37
2023-02-11T01:40:59.654Z,20.40
2023-02-11T01:44:17.167Z,20.37
2023-02-11T01:47:20.143Z,20.35
2023-02-11T01:50:24.306Z,20.41
2023-02-11T01:53:44.782Z,20.39
2023-02-11T01:57:08.324Z,20.44
2023-02-11T02:00:12.981Z,20.39
2023-02-11T02:03:19.516Z,20.35
2023-02-11T02:06:27.493Z,20.33
2023-02-11T02:09:33.480Z,20.32
2023-02-11T02:12:36.255Z,20.24
2023-02-11T02:15:40.475Z,20.19
2023-02-11T02:18:49.836Z,20.08
2023-02-11T02:22:06.186Z,20.06
2023-02-11T02:25:23.703Z,19.96
2023-02-11T02:28:38.096Z,19.87
2023-02-11T02:31:48.269Z,19.77
2023-02-11T02:34:54.933Z,19.72
2023-02-11T02:38:02.020Z,19.66
2023-02-11T02:41:07.763Z,19.62
2023-02-11T02:44:10.536Z,19.53
2023-02-11T02:47:13.236Z,19.51
2023-02-11T02:50:19.660Z,19.59
2023-02-11T02:53:28.007Z,19.53
2023-02-11T02:56:35.551Z,19.48
2023-02-11T02:59:46.091Z,19.45
2023-02-11T03:02:53.285Z,19.35
2023-02-11T03:06:01.654Z,19.32
2023-02-11T03:09:10.342Z,19.31
2023-02-11T03:12:15.259Z,19.24
2023-02-11T03:15:18.943Z,19.22
2023-02-11T03:18:23.439Z,19.13
2023-02-11T03:21:28.322Z,19.08
2023-02-11T03:24:32.313Z,19.01
2023-02-11T03:27:39.900Z,18.96
2023-02-11T03:30:45.346Z,18.94
2023-02-11T03:33:55.442Z,18.91
2023-02-11T03:37:02.984Z,18.83
2023-02-11T03:40:07.863Z,18.77
2023-02-11T03:43:13.433Z,18.73
2023-02-11T03:46:17.975Z,18.69
2023-02-11T03:49:22.971Z,18.70
2023-02-11T03:52:27.858Z,18.64
2023-02-11T03:55:31.750Z,18.66
2023-02-11T03:58:34.475Z,18.61
2023-02-11T04:01:37.287Z,18.57
2023-02-11T04:04:39.970Z,18.75
2023-02-11T04:07:44.133Z,18.82
2023-02-11T04:10:46.830Z,18.95
2023-02-11T04:13:49.657Z,19.00
2023-02-11T04:16:52.425Z,19.11
2023-02-11T04:19:55.195Z,19.24
2023-02-11T04:22:59.355Z,19.35
2023-02-11T04:26:02.105Z,19.43
2023-02-11T04:29:04.910Z,19.44
2023-02-11T04:32:07.750Z,19.48
2023-02-11T04:35:10.612Z,19.53
2023-02-11T04:38:15.030Z,19.59
2023-02-11T04:41:17.764Z,19.62
2023-02-11T04:44:20.471Z,19.63
2023-02-11T04:47:23.255Z,19.66
2023-02-11T04:50:26.095Z,19.67
2023-02-11T04:53:30.262Z,19.70
2023-02-11T04:56:33.080Z,19.71
2023-02-11T04:59:35.871Z,19.71
2023-02-11T05:02:38.627Z,19.74
2023-02-11T05:05:41.748Z,19.77
2023-02-11T05:08:45.959Z,19.79
2023-02-11T05:11:49.018Z,19.81
2023-02-11T05:14:51.883Z,19.82
2023-02-11T05:17:54.716Z,19.82
2023-02-11T05:20:57.618Z,19.79
2023-02-11T05:24:01.823Z,19.83
2023-02-11T05:27:04.660Z,19.84
2023-02-11T05:30:08.068Z,19.88
2023-02-11T05:33:10.843Z,19.87
2023-02-11T05:36:17.559Z,19.89
2023-02-11T05:39:21.904Z,19.89
2023-02-11T05:42:24.678Z,19.91
2023-02-11T05:45:27.464Z,19.87
2023-02-11T05:48:30.293Z,19.93
2023-02-11T05:51:33.043Z,19.90
2023-02-11T05:54:37.204Z,19.94
2023-02-11T05:57:39.910Z,19.96
2023-02-11T06:00:42.650Z,19.95
2023-02-11T06:03:45.454Z,19.94
2023-02-11T06:06:48.188Z,19.95
2023-02-11T06:09:52.346Z,19.86
2023-02-11T06:12:55.064Z,19.76
2023-02-11T06:15:58.459Z,19.68
2023-02-11T06:19:01.304Z,19.62
2023-02-11T06:22:04.810Z,19.59
2023-02-11T06:25:09.268Z,19.53
2023-02-11T06:28:12.050Z,19.44
2023-02-11T06:31:15.253Z,19.38
2023-02-11T06:34:18.085Z,19.36
2023-02-11T06:37:20.924Z,19.29
2023-02-11T06:40:25.095Z,19.21
2023-02-11T06:43:27.912Z,19.12
2023-02-11T06:46:30.784Z,19.06
2023-02-11T06:49:33.673Z,19.10
2023-02-11T06:52:36.383Z,19.05
2023-02-11T06:55:40.542Z,18.94
2023-02-11T06:58:43.248Z,18.92
2023-02-11T07:01:46.092Z,18.90
2023-02-11T07:04:48.887Z,18.90
2023-02-11T07:07:51.632Z,18.80
2023-02-11T07:10:56.272Z,18.72
2023-02-11T07:14:01.728Z,18.74
2023-02-11T07:17:04.874Z,18.70
2023-02-11T07:20:08.872Z,18.67
2023-02-11T07:23:11.650Z,18.65
2023-02-11T07:26:16.574Z,18.63
2023-02-11T07:29:19.281Z,18.60
2023-02-11T07:32:22.003Z,18.61
2023-02-11T07:35:24.778Z,18.73
2023-02-11T07:38:27.790Z,18.77
2023-02-11T07:41:32.506Z,18.82
2023-02-11T07:44:36.924Z,18.93
2023-02-11T07:47:39.777Z,19.06
2023-02-11T07:50:42.508Z,19.17
2023-02-11T07:53:46.992Z,19.27
2023-02-11T07:56:51.179Z,19.34
2023-02-11T07:59:54.378Z,19.33
2023-02-11T08:02:58.082Z,19.43
2023-02-11T08:06:04.147Z,19.42
2023-02-11T08:09:07.599Z,19.46
2023-02-11T08:12:11.858Z,19.50
2023-02-11T08:15:14.788Z,19.49
2023-02-11T08:18:18.550Z,19.55
2023-02-11T08:21:21.941Z,19.53
2023-02-11T08:24:24.753Z,19.57
2023-02-11T08:27:28.821Z,19.60
2023-02-11T08:30:31.535Z,19.64
2023-02-11T08:33:34.350Z,19.63
2023-02-11T08:36:37.770Z,19.65
2023-02-11T08:39:40.583Z,19.70
2023-02-11T08:42:44.616Z,19.68
2023-02-11T08:45:47.347Z,19.69
2023-02-11T08:48:50.073Z,19.72
2023-02-11T08:51:54.203Z,19.74
2023-02-11T08:54:57.105Z,19.76
2023-02-11T08:58:01.358Z,19.77
2023-02-11T09:01:09.743Z,19.79
2023-02-11T09:04:12.559Z,19.80
2023-02-11T09:07:15.487Z,19.86
2023-02-11T09:10:18.265Z,19.82
2023-02-11T09:13:22.356Z,19.84
2023-02-11T09:16:26.572Z,19.87
2023-02-11T09:19:29.422Z,19.88
2023-02-11T09:22:32.220Z,19.92
2023-02-11T09:25:35.041Z,19.88
2023-02-11T09:28:39.263Z,19.92
2023-02-11T09:31:42.316Z,19.99
2023-02-11T09:34:45.103Z,19.99
2023-02-11T09:37:47.789Z,19.93
2023-02-11T09:40:50.738Z,19.98
2023-02-11T09:43:55.867Z,19.98
2023-02-11T09:46:59.915Z,20.01
2023-02-11T09:50:04.289Z,20.00
2023-02-11T09:53:11.228Z,19.98
2023-02-11T09:56:14.819Z,20.00
2023-02-11T09:59:20.226Z,20.04
2023-02-11T10:02:25.819Z,20.01
2023-02-11T10:05:36.195Z,20.06
2023-02-11T10:08:43.971Z,20.09
2023-02-11T10:11:51.362Z,20.04
2023-02-11T10:15:04.367Z,20.09
2023-02-11T10:18:18.433Z,20.09
2023-02-11T10:21:25.570Z,20.15
2023-02-11T10:24:29.812Z,20.15
2023-02-11T10:27:35.023Z,20.12
2023-02-11T10:30:41.771Z,20.13
2023-02-11T10:33:46.870Z,20.22
2023-02-11T10:36:49.789Z,20.20
2023-02-11T10:39:52.640Z,20.19
2023-02-11T10:43:00.095Z,20.23
2023-02-11T10:46:07.631Z,20.19
2023-02-11T10:49:10.341Z,20.26
2023-02-11T10:52:17.152Z,20.20
2023-02-11T10:55:21.830Z,20.26
2023-02-11T10:58:25.587Z,20.32
2023-02-11T11:01:46.327Z,20.24
2023-02-11T11:04:49.782Z,20.25
2023-02-11T11:07:54.129Z,20.28
2023-02-11T11:11:03.860Z,20.25
2023-02-11T11:14:06.644Z,20.31
2023-02-11T11:17:14.444Z,20.32
2023-02-11T11:20:20.941Z,20.30
2023-02-11T11:23:24.768Z,20.36
2023-02-11T11:26:29.092Z,20.34
2023-02-11T11:29:34.231Z,20.31
2023-02-11T11:32:39.893Z,20.28
2023-02-11T11:35:42.670Z,20.24
2023-02-11T11:38:46.819Z,20.32
2023-02-11T11:41:54.597Z,20.40
2023-02-11T11:44:59.044Z,20.33
2023-02-11T11:48:07.010Z,20.37
2023-02-11T11:51:11.672Z,20.29
2023-02-11T11:54:16.507Z,20.31
2023-02-11T11:57:20.755Z,20.31
2023-02-11T12:00:27.656Z,20.33
2023-02-11T12:04:01.430Z,20.36
2023-02-11T12:07:13.040Z,20.36
2023-02-11T12:10:35.187Z,20.33
2023-02-11T12:13:58.557Z,20.32
2023-02-11T12:17:04.223Z,20.21
2023-02-11T12:20:21.985Z,20.09
2023-02-11T12:23:39.915Z,20.09
2023-02-11T12:26:45.655Z,19.99
2023-02-11T12:29:55.065Z,19.99
2023-02-11T12:33:05.227Z,19.91
2023-02-11T12:36:10.997Z,19.95
2023-02-11T12:39:23.167Z,19.84
2023-02-11T12:42:51.963Z,19.90
2023-02-11T12:46:10.970Z,19.87
2023-02-11T12:49:32.724Z,19.80
2023-02-11T12:52:43.391Z,19.83
2023-02-11T12:55:49.896Z,19.74
2023-02-11T12:58:53.702Z,19.76
2023-02-11T13:01:57.263Z,19.78
2023-02-11T13:05:03.931Z,19.78
2023-02-11T13:08:12.165Z,19.69
2023-02-11T13:11:18.625Z,19.74
2023-02-11T13:14:25.427Z,19.63
2023-02-11T13:17:31.798Z,19.64
2023-02-11T13:20:39.256Z,19.59
2023-02-11T13:23:45.854Z,19.50
2023-02-11T13:26:55.855Z,19.46
2023-02-11T13:30:14.882Z,19.48
2023-02-11T13:33:19.442Z,19.64
2023-02-11T13:36:23.646Z,19.67
2023-02-11T13:39:26.534Z,19.75
2023-02-11T13:42:32.100Z,19.83
2023-02-11T13:45:39.515Z,19.99
2023-02-11T13:48:47.424Z,19.99
2023-02-11T13:51:50.791Z,20.06
2023-02-11T13:54:55.236Z,20.13
2023-02-11T13:58:12.793Z,20.20
2023-02-11T14:01:40.272Z,20.25
2023-02-11T14:05:11.758Z,20.23
2023-02-11T14:08:38.732Z,20.21
2023-02-11T14:11:44.380Z,20.22
2023-02-11T14:15:02.867Z,20.35
2023-02-11T14:18:21.462Z,20.29
2023-02-11T14:21:32.672Z,20.30
2023-02-11T14:24:47.031Z,20.29
2023-02-11T14:27:55.349Z,20.34
2023-02-11T14:31:04.277Z,20.28
2023-02-11T14:34:20.637Z,20.30
2023-02-11T14:37:38.833Z,20.36
2023-02-11T14:40:47.750Z,20.42
2023-02-11T14:43:52.903Z,20.36
2023-02-11T14:46:56.299Z,20.42
2023-02-11T14:49:59.147Z,20.36
2023-02-11T14:53:05.759Z,20.40
2023-02-11T14:56:17.825Z,20.46
2023-02-11T14:59:21.974Z,20.42
2023-02-11T15:02:26.422Z,20.49
2023-02-11T15:05:30.116Z,20.45
2023-02-11T15:08:35.467Z,20.51
2023-02-11T15:11:40.325Z,20.50
2023-02-11T15:14:46.847Z,20.50
2023-02-11T15:17:49.902Z,20.52
2023-02-11T15:20:53.321Z,20.62
2023-02-11T15:23:58.335Z,20.60
2023-02-11T15:27:01.839Z,20.62
2023-02-11T15:30:18.806Z,20.59
2023-02-11T15:33:22.957Z,20.66
2023-02-11T15:36:34.385Z,20.68
2023-02-11T15:39:41.053Z,20.65
2023-02-11T15:42:55.718Z,20.65
2023-02-11T15:46:02.638Z,20.67
2023-02-11T15:49:06.679Z,20.63
2023-02-11T15:52:09.552Z,20.67
2023-02-11T15:55:15.383Z,20.66
2023-02-11T15:58:18.200Z,20.66
2023-02-11T16:01:32.420Z,20.69
2023-02-11T16:04:37.283Z,20.68
2023-02-11T16:07:41.260Z,20.67
2023-02-11T16:10:54.494Z,20.70
2023-02-11T16:13:59.079Z,20.65
2023-02-11T16:17:03.899Z,20.65
2023-02-11T16:20:07.335Z,20.65
2023-02-11T16:23:19.799Z,20.66
2023-02-11T16:26:27.840Z,20.69
2023-02-11T16:29:31.333Z,20.68
2023-02-11T16:32:34.813Z,20.65
2023-02-11T16:35:38.346Z,20.73
2023-02-11T16:38:41.257Z,20.70
2023-02-11T16:41:45.548Z,20.69
2023-02-11T16:44:48.285Z,20.77
2023-02-11T16:47:51.231Z,20.72
2023-02-11T16:50:54.694Z,20.73
2023-02-11T16:53:57.970Z,20.76
2023-02-11T16:57:03.110Z,20.72
2023-02-11T17:00:07.086Z,20.77
2023-02-11T17:03:11.892Z,20.76
2023-02-11T17:06:14.964Z,20.75
2023-02-11T17:09:20.324Z,20.76
2023-02-11T17:12:25.417Z,20.75
2023-02-11T17:15:28.486Z,20.79
2023-02-11T17:18:31.180Z,20.83
2023-02-11T17:21:34.266Z,20.77
2023-02-11T17:24:37.173Z,20.70
2023-02-11T17:27:41.785Z,20.63
2023-02-11T17:30:44.721Z,20.58
2023-02-11T17:33:48.522Z,20.48
2023-02-11T17:36:51.843Z,20.43
2023-02-11T17:39:54.821Z,20.34
2023-02-11T17:42:59.132Z,20.24
2023-02-11T17:46:01.967Z,20.21
2023-02-11T17:49:05.549Z,20.12
2023-02-11T17:52:08.517Z,20.10
2023-02-11T17:55:11.445Z,20.03
2023-02-11T17:58:15.626Z,19.97
2023-02-11T18:01:18.614Z,19.91
2023-02-11T18:04:21.507Z,19.87
2023-02-11T18:07:24.502Z,19.80
2023-02-11T18:10:27.297Z,19.87
2023-02-11T18:13:31.694Z,19.88
2023-02-11T18:16:36.517Z,19.93
2023-02-11T18:19:39.328Z,19.99
2023-02-11T18:22:44.380Z,20.07
2023-02-11T18:25:47.154Z,20.14
2023-02-11T18:28:52.566Z,20.29
2023-02-11T18:31:56.664Z,20.39
2023-02-11T18:34:59.606Z,20.38
2023-02-11T18:38:02.471Z,20.47
2023-02-11T18:41:05.331Z,20.46
2023-02-11T18:44:09.592Z,20.49
2023-02-11T18:47:12.488Z,20.57
2023-02-11T18:50:16.239Z,20.57
2023-02-11T18:53:19.024Z,20.57
2023-02-11T18:56:22.931Z,20.57
2023-02-11T18:59:27.129Z,20.48
2023-02-11T19:02:29.976Z,20.59
2023-02-11T19:05:33.655Z,20.56
2023-02-11T19:08:36.454Z,20.69
2023-02-11T19:11:54.490Z,20.59
2023-02-11T19:15:00.502Z,20.63
2023-02-11T19:18:03.404Z,20.61
2023-02-11T19:21:09.791Z,20.64
2023-02-11T19:24:13.127Z,20.61
2023-02-11T19:27:17.110Z,20.69
2023-02-11T19:30:21.397Z,20.66
2023-02-11T19:33:24.135Z,20.64
2023-02-11T19:36:26.895Z,20.64
2023-02-11T19:39:29.727Z,20.55
2023-02-11T19:42:32.432Z,20.53
2023-02-11T19:45:38.209Z,20.50
2023-02-11T19:48:41.178Z,20.45
2023-02-11T19:51:44.293Z,20.41
2023-02-11T19:54:47.035Z,20.35
2023-02-11T19:57:49.755Z,20.31
2023-02-11T20:00:54.063Z,20.27
2023-02-11T20:03:57.780Z,20.21
2023-02-11T20:07:00.481Z,20.14
2023-02-11T20:10:03.544Z,19.99
2023-02-11T20:13:06.771Z,19.99
2023-02-11T20:16:12.618Z,19.92
2023-02-11T20:19:17.999Z,19.90
2023-02-11T20:22:21.348Z,19.87
2023-02-11T20:25:24.313Z,19.88
2023-02-11T20:28:27.177Z,19.89
2023-02-11T20:31:33.032Z,19.89
2023-02-11T20:34:35.793Z,19.94
2023-02-11T20:37:41.098Z,20.00
2023-02-11T20:40:45.387Z,20.13
2023-02-11T20:43:49.318Z,20.25
2023-02-11T20:46:54.446Z,20.27
2023-02-11T20:49:57.506Z,20.28
2023-02-11T20:53:00.290Z,20.34
2023-02-11T20:56:03.642Z,20.38
2023-02-11T20:59:07.157Z,20.41
2023-02-11T21:02:13.393Z,20.50
2023-02-11T21:05:16.231Z,20.44
2023-02-11T21:08:19.145Z,20.47
2023-02-11T21:11:22.061Z,20.52
2023-02-11T21:14:25.541Z,20.49
2023-02-11T21:17:29.894Z,20.56
2023-02-11T21:20:32.742Z,20.58
2023-02-11T21:23:35.778Z,20.58
2023-02-11T21:26:38.845Z,20.63
2023-02-11T21:29:53.505Z,20.62
2023-02-11T21:33:00.183Z,20.61
2023-02-11T21:36:03.784Z,20.65
2023-02-11T21:39:06.492Z,20.57
2023-02-11T21:42:09.237Z,20.63
2023-02-11T21:45:11.979Z,20.68
2023-02-11T21:48:16.466Z,20.65
2023-02-11T21:51:20.526Z,20.63
2023-02-11T21:54:25.789Z,20.63
2023-02-11T21:57:28.624Z,20.64
2023-02-11T22:00:32.003Z,20.63
2023-02-11T22:03:36.116Z,20.66
2023-02-11T22:06:39.053Z,20.68
2023-02-11T22:09:41.952Z,20.70
2023-02-11T22:12:44.758Z,20.66
2023-02-11T22:15:57.818Z,20.61
2023-02-11T22:19:03.442Z,20.68
2023-02-11T22:22:08.003Z,20.60
2023-02-11T22:25:10.769Z,20.63
2023-02-11T22:28:13.568Z,20.67
2023-02-11T22:31:18.381Z,20.66
2023-02-11T22:34:22.616Z,20.67
2023-02-11T22:37:25.408Z,20.70
2023-02-11T22:40:28.217Z,20.65
2023-02-11T22:43:30.900Z,20.69
2023-02-11T22:46:33.694Z,20.78
2023-02-11T22:49:39.542Z,20.66
2023-02-11T22:52:42.260Z,20.75
2023-02-11T22:55:44.932Z,20.69
2023-02-11T22:58:47.951Z,20.72
2023-02-11T23:01:50.937Z,20.73
2023-02-11T23:04:55.199Z,20.69
2023-02-11T23:07:57.907Z,20.73
2023-02-11T23:11:05.128Z,20.77
2023-02-11T23:14:10.130Z,20.76
2023-02-11T23:17:12.835Z,20.80
2023-02-11T23:20:17.093Z,20.76
2023-02-11T23:23:19.859Z,20.75
2023-02-11T23:26:22.642Z,20.82
2023-02-11T23:29:25.452Z,20.78
2023-02-11T23:32:28.222Z,20.78
2023-02-11T23:35:32.373Z,20.51
2023-02-11T23:38:35.115Z,20.02
2023-02-11T23:41:37.856Z,20.54
2023-02-11T23:44:40.612Z,20.72
2023-02-11T23:47:43.372Z,20.71
2023-02-11T23:50:47.779Z,20.71
2023-02-11T23:53:50.520Z,20.74
2023-02-11T23:56:53.304Z,20.74
2023-02-11T23:59:56.060Z,20.75
